createdAt,value
2017-09-16T00:00:23.586Z,1002.3
2017-09-16T00:01:26.025Z,1002.3
2017-09-16T00:02:28.470Z,1002.3
2017-09-16T00:03:30.919Z,1002.3
2017-09-16T00:04:33.362Z,1002.3
2017-09-16T00:05:35.811Z,1002.3
2017-09-16T00:06:38.244Z,1002.3
2017-09-16T00:07:40.684Z,1002.3
2017-09-16T00:08:43.128Z,1002.3
2017-09-16T00:09:45.576Z,1002.3
2017-09-16T00:11:20.126Z,1002.4
2017-09-16T00:12:22.520Z,1002.3
2017-09-16T00:13:24.901Z,1002.3
2017-09-16T00:14:27.306Z,1002.3
2017-09-16T00:15:29.692Z,1002.3
2017-09-16T00:16:32.074Z,1002.3
2017-09-16T00:17:34.466Z,1002.3
2017-09-16T00:18:36.854Z,1002.3
2017-09-16T00:19:39.245Z,1002.3
2017-09-16T00:20:41.642Z,1002.3
2017-09-16T00:21:44.018Z,1002.3
2017-09-16T00:22:46.411Z,1002.3
2017-09-16T00:23:48.795Z,1002.3
2017-09-16T00:24:51.180Z,1002.3
2017-09-16T00:25:53.572Z,1002.3
2017-09-16T00:26:56.309Z,1002.3
2017-09-16T00:27:58.692Z,1002.3
2017-09-16T00:29:01.108Z,1002.3
2017-09-16T00:30:03.530Z,1002.3
2017-09-16T00:31:05.920Z,1002.3
2017-09-16T00:32:08.307Z,1002.3
2017-09-16T00:33:11.066Z,1002.3
2017-09-16T00:34:13.792Z,1002.3
2017-09-16T00:35:16.178Z,1002.3
2017-09-16T00:36:18.563Z,1002.3
2017-09-16T00:37:20.955Z,1002.3
2017-09-16T00:38:23.340Z,1002.3
2017-09-16T00:39:25.727Z,1002.3
2017-09-16T00:40:28.122Z,1002.3
2017-09-16T00:41:30.845Z,1002.2
2017-09-16T00:42:33.228Z,1002.3
2017-09-16T00:43:35.619Z,1002.2
2017-09-16T00:44:38.008Z,1002.2
2017-09-16T00:45:40.394Z,1002.2
2017-09-16T00:46:42.788Z,1002.2
2017-09-16T00:47:45.163Z,1002.2
2017-09-16T00:48:47.551Z,1002.1
2017-09-16T00:49:49.945Z,1002.1
2017-09-16T00:50:52.332Z,1002.1
2017-09-16T00:51:54.720Z,1002.1
2017-09-16T00:52:57.106Z,1002.1
2017-09-16T00:53:59.490Z,1002.1
2017-09-16T00:55:01.889Z,1002.1
2017-09-16T00:56:04.278Z,1002
2017-09-16T00:57:06.666Z,1002.1
2017-09-16T00:58:09.399Z,1002.1
2017-09-16T00:59:11.782Z,1002.1
2017-09-16T01:00:14.503Z,1002.1
2017-09-16T01:01:17.229Z,1002.1
2017-09-16T01:02:19.966Z,1002.1
2017-09-16T01:03:22.354Z,1002.1
2017-09-16T01:04:24.747Z,1002
2017-09-16T01:05:27.142Z,1002.1
2017-09-16T01:06:29.524Z,1002
2017-09-16T01:07:31.909Z,1002.1
2017-09-16T01:08:34.297Z,1002.1
2017-09-16T01:09:37.017Z,1002.1
2017-09-16T01:10:39.740Z,1002.1
2017-09-16T01:11:42.126Z,1002
2017-09-16T01:12:44.508Z,1002
2017-09-16T01:13:46.923Z,1002
2017-09-16T01:14:49.312Z,1002
2017-09-16T01:15:51.700Z,1002
2017-09-16T01:16:54.434Z,1002
2017-09-16T01:17:56.824Z,1002
2017-09-16T01:18:59.218Z,1002
2017-09-16T01:20:01.964Z,1002
2017-09-16T01:21:04.347Z,1002
2017-09-16T01:22:06.742Z,1002
2017-09-16T01:23:09.123Z,1002
2017-09-16T01:24:11.509Z,1002
2017-09-16T01:25:13.898Z,1002
2017-09-16T01:26:16.286Z,1002
2017-09-16T01:27:19.012Z,1002
2017-09-16T01:28:21.410Z,1002
2017-09-16T01:29:23.792Z,1001.9
2017-09-16T01:30:26.532Z,1002
2017-09-16T01:31:28.923Z,1001.9
2017-09-16T01:32:31.311Z,1001.9
2017-09-16T01:33:33.705Z,1001.9
2017-09-16T01:34:36.090Z,1001.9
2017-09-16T01:35:38.482Z,1001.9
2017-09-16T01:36:40.873Z,1001.9
2017-09-16T01:37:43.251Z,1001.9
2017-09-16T01:38:45.646Z,1001.9
2017-09-16T01:39:48.031Z,1001.9
2017-09-16T01:40:50.424Z,1001.8
2017-09-16T01:41:52.812Z,1001.8
2017-09-16T01:42:55.199Z,1001.9
2017-09-16T01:43:57.589Z,1001.9
2017-09-16T01:44:59.988Z,1001.9
2017-09-16T01:46:02.372Z,1001.9
2017-09-16T01:47:04.759Z,1001.9
2017-09-16T01:48:07.141Z,1001.9
2017-09-16T01:49:09.533Z,1001.9
2017-09-16T01:50:12.049Z,1002
2017-09-16T01:51:14.442Z,1002
2017-09-16T01:52:16.819Z,1002
2017-09-16T01:53:19.554Z,1002
2017-09-16T01:54:22.281Z,1002
2017-09-16T01:55:25.008Z,1002
2017-09-16T01:56:27.740Z,1002
2017-09-16T01:57:30.126Z,1002.1
2017-09-16T01:58:32.509Z,1002
2017-09-16T01:59:34.905Z,1002
2017-09-16T02:00:37.287Z,1002
2017-09-16T02:01:39.677Z,1002
2017-09-16T02:02:42.059Z,1002
2017-09-16T02:03:44.452Z,1002
2017-09-16T02:04:46.836Z,1002
2017-09-16T02:05:49.224Z,1001.9
2017-09-16T02:06:51.958Z,1002
2017-09-16T02:07:54.349Z,1002
2017-09-16T02:08:57.087Z,1002
2017-09-16T02:09:59.484Z,1002
2017-09-16T02:11:01.858Z,1002
2017-09-16T02:12:04.601Z,1002
2017-09-16T02:13:06.994Z,1002
2017-09-16T02:14:09.375Z,1002
2017-09-16T02:15:11.761Z,1002
2017-09-16T02:16:14.144Z,1002
2017-09-16T02:17:16.528Z,1002
2017-09-16T02:18:18.920Z,1002
2017-09-16T02:19:21.299Z,1002
2017-09-16T02:20:23.693Z,1002
2017-09-16T02:21:26.077Z,1002
2017-09-16T02:22:28.463Z,1002
2017-09-16T02:23:30.851Z,1002
2017-09-16T02:24:33.237Z,1002.1
2017-09-16T02:25:35.615Z,1002.1
2017-09-16T02:26:38.004Z,1002.1
2017-09-16T02:27:40.391Z,1002.1
2017-09-16T02:28:42.777Z,1002.2
2017-09-16T02:29:45.163Z,1002.1
2017-09-16T02:30:47.553Z,1002.1
2017-09-16T02:31:49.942Z,1002.1
2017-09-16T02:32:52.334Z,1002.1
2017-09-16T02:33:54.716Z,1002.1
2017-09-16T02:34:57.094Z,1002.1
2017-09-16T02:35:59.486Z,1002.1
2017-09-16T02:37:01.876Z,1002.1
2017-09-16T02:38:04.268Z,1002.1
2017-09-16T02:39:06.656Z,1002.1
2017-09-16T02:40:09.045Z,1002.1
2017-09-16T02:41:11.433Z,1002.1
2017-09-16T02:42:14.171Z,1002.1
2017-09-16T02:43:16.889Z,1002.1
2017-09-16T02:44:19.274Z,1002.1
2017-09-16T02:45:21.654Z,1002.1
2017-09-16T02:46:24.042Z,1002.1
2017-09-16T02:47:26.771Z,1002.1
2017-09-16T02:48:29.160Z,1002.1
2017-09-16T02:49:31.542Z,1002.1
2017-09-16T02:50:33.937Z,1002.1
2017-09-16T02:51:36.327Z,1002
2017-09-16T02:52:38.713Z,1002.1
2017-09-16T02:53:41.095Z,1002.1
2017-09-16T02:54:43.484Z,1002.1
2017-09-16T02:55:45.874Z,1002.1
2017-09-16T02:56:48.270Z,1002.2
2017-09-16T02:57:50.659Z,1002.2
2017-09-16T02:58:53.043Z,1002.2
2017-09-16T02:59:55.423Z,1002.2
2017-09-16T03:00:57.817Z,1002.2
2017-09-16T03:02:00.205Z,1002.2
2017-09-16T03:03:02.597Z,1002.2
2017-09-16T03:04:04.986Z,1002.2
2017-09-16T03:05:07.709Z,1002.2
2017-09-16T03:06:10.092Z,1002.2
2017-09-16T03:07:12.484Z,1002.2
2017-09-16T03:08:14.873Z,1002.2
2017-09-16T03:09:17.611Z,1002.2
2017-09-16T03:10:19.990Z,1002.2
2017-09-16T03:11:22.382Z,1002.2
2017-09-16T03:12:24.769Z,1002.2
2017-09-16T03:13:27.160Z,1002.1
2017-09-16T03:14:29.546Z,1002.2
2017-09-16T03:15:31.932Z,1002.1
2017-09-16T03:16:34.316Z,1002.1
2017-09-16T03:17:37.053Z,1002.1
2017-09-16T03:18:39.438Z,1002.1
2017-09-16T03:19:41.821Z,1002.1
2017-09-16T03:20:44.542Z,1002.1
2017-09-16T03:21:46.936Z,1002.1
2017-09-16T03:22:49.320Z,1002.2
2017-09-16T03:23:51.708Z,1002.2
2017-09-16T03:24:54.089Z,1002.2
2017-09-16T03:25:56.487Z,1002.2
2017-09-16T03:26:58.876Z,1002.2
2017-09-16T03:28:01.270Z,1002.2
2017-09-16T03:29:03.655Z,1002.2
2017-09-16T03:30:06.049Z,1002.2
2017-09-16T03:31:09.105Z,1002.2
2017-09-16T03:32:11.845Z,1002.2
2017-09-16T03:33:14.231Z,1002.2
2017-09-16T03:34:16.606Z,1002.2
2017-09-16T03:35:18.991Z,1002.2
2017-09-16T03:36:21.388Z,1002.2
2017-09-16T03:37:23.771Z,1002.3
2017-09-16T03:38:26.163Z,1002.2
2017-09-16T03:39:28.547Z,1002.2
2017-09-16T03:40:30.931Z,1002.2
2017-09-16T03:41:33.660Z,1002.3
2017-09-16T03:42:36.048Z,1002.2
2017-09-16T03:43:38.428Z,1002.2
2017-09-16T03:44:40.821Z,1002.2
2017-09-16T03:45:43.214Z,1002.2
2017-09-16T03:46:45.598Z,1002.2
2017-09-16T03:47:47.989Z,1002.2
2017-09-16T03:48:50.396Z,1002.2
2017-09-16T03:49:52.779Z,1002.2
2017-09-16T03:50:55.172Z,1002.2
2017-09-16T03:51:57.560Z,1002.2
2017-09-16T03:52:59.936Z,1002.2
2017-09-16T03:54:02.684Z,1002.2
2017-09-16T03:55:05.067Z,1002.2
2017-09-16T03:56:07.455Z,1002.3
2017-09-16T03:57:09.848Z,1002.2
2017-09-16T03:58:12.224Z,1002.3
2017-09-16T03:59:14.611Z,1002.2
2017-09-16T04:00:17.003Z,1002.2
2017-09-16T04:01:19.383Z,1002.2
2017-09-16T04:02:21.772Z,1002.2
2017-09-16T04:03:24.164Z,1002.2
2017-09-16T04:04:26.551Z,1002.2
2017-09-16T04:05:28.937Z,1002.2
2017-09-16T04:06:31.322Z,1002.3
2017-09-16T04:07:33.715Z,1002.3
2017-09-16T04:08:36.155Z,1002.2
2017-09-16T04:09:38.539Z,1002.2
2017-09-16T04:10:40.925Z,1002.3
2017-09-16T04:11:43.321Z,1002.3
2017-09-16T04:12:46.047Z,1002.3
2017-09-16T04:13:48.437Z,1002.2
2017-09-16T04:14:50.817Z,1002.3
2017-09-16T04:15:53.204Z,1002.2
2017-09-16T04:16:55.615Z,1002.2
2017-09-16T04:17:58.000Z,1002.2
2017-09-16T04:19:00.390Z,1002.2
2017-09-16T04:20:02.770Z,1002.3
2017-09-16T04:21:05.149Z,1002.2
2017-09-16T04:22:07.549Z,1002.3
2017-09-16T04:23:09.936Z,1002.3
2017-09-16T04:24:12.315Z,1002.2
2017-09-16T04:25:15.386Z,1002.2
2017-09-16T04:26:17.775Z,1002.2
2017-09-16T04:27:20.171Z,1002.2
2017-09-16T04:28:22.920Z,1002.3
2017-09-16T04:29:25.322Z,1002.2
2017-09-16T04:30:28.106Z,1002.3
2017-09-16T04:31:30.536Z,1002.3
2017-09-16T04:32:32.977Z,1002.3
2017-09-16T04:33:35.415Z,1002.3
2017-09-16T04:34:37.887Z,1002.3
2017-09-16T04:35:40.340Z,1002.4
2017-09-16T04:36:42.787Z,1002.4
2017-09-16T04:37:45.255Z,1002.3
2017-09-16T04:38:47.683Z,1002.3
2017-09-16T04:39:50.165Z,1002.4
2017-09-16T04:40:52.609Z,1002.4
2017-09-16T04:41:55.418Z,1002.4
2017-09-16T04:42:58.221Z,1002.4
2017-09-16T04:44:00.670Z,1002.5
2017-09-16T04:45:03.113Z,1002.5
2017-09-16T04:46:05.577Z,1002.5
2017-09-16T04:47:08.028Z,1002.5
2017-09-16T04:48:10.488Z,1002.5
2017-09-16T04:49:12.939Z,1002.5
2017-09-16T04:50:15.383Z,1002.6
2017-09-16T04:51:17.834Z,1002.6
2017-09-16T04:52:20.284Z,1002.6
2017-09-16T04:53:23.073Z,1002.6
2017-09-16T04:54:25.531Z,1002.6
2017-09-16T04:55:27.983Z,1002.6
2017-09-16T04:56:31.116Z,1002.6
2017-09-16T04:57:33.901Z,1002.6
2017-09-16T04:58:36.346Z,1002.6
2017-09-16T04:59:38.788Z,1002.6
2017-09-16T05:00:41.234Z,1002.6
2017-09-16T05:01:43.670Z,1002.6
2017-09-16T05:02:46.454Z,1002.6
2017-09-16T05:03:48.897Z,1002.6
2017-09-16T05:04:51.366Z,1002.7
2017-09-16T05:05:53.807Z,1002.6
2017-09-16T05:06:56.252Z,1002.6
2017-09-16T05:07:58.700Z,1002.6
2017-09-16T05:09:01.147Z,1002.6
2017-09-16T05:10:03.611Z,1002.6
2017-09-16T05:11:06.053Z,1002.6
2017-09-16T05:12:08.485Z,1002.7
2017-09-16T05:13:10.940Z,1002.7
2017-09-16T05:14:13.385Z,1002.7
2017-09-16T05:15:15.829Z,1002.7
2017-09-16T05:16:18.287Z,1002.6
2017-09-16T05:17:20.742Z,1002.7
2017-09-16T05:18:23.195Z,1002.7
2017-09-16T05:19:25.648Z,1002.7
2017-09-16T05:20:28.117Z,1002.7
2017-09-16T05:21:30.559Z,1002.7
2017-09-16T05:22:32.996Z,1002.7
2017-09-16T05:23:35.454Z,1002.7
2017-09-16T05:24:37.902Z,1002.7
2017-09-16T05:25:40.347Z,1002.7
2017-09-16T05:26:42.799Z,1002.7
2017-09-16T05:27:45.246Z,1002.7
2017-09-16T05:28:47.681Z,1002.7
2017-09-16T05:29:50.130Z,1002.7
2017-09-16T05:30:52.581Z,1002.7
2017-09-16T05:31:55.071Z,1002.7
2017-09-16T05:32:57.510Z,1002.7
2017-09-16T05:34:00.334Z,1002.7
2017-09-16T05:35:02.774Z,1002.7
2017-09-16T05:36:05.213Z,1002.7
2017-09-16T05:37:07.997Z,1002.6
2017-09-16T05:38:10.645Z,1002.7
2017-09-16T05:39:13.088Z,1002.7
2017-09-16T05:40:15.537Z,1002.7
2017-09-16T05:41:17.998Z,1002.7
2017-09-16T05:42:20.421Z,1002.7
2017-09-16T05:43:22.890Z,1002.7
2017-09-16T05:44:25.337Z,1002.7
2017-09-16T05:45:27.781Z,1002.7
2017-09-16T05:46:30.226Z,1002.7
2017-09-16T05:47:32.693Z,1002.7
2017-09-16T05:48:35.131Z,1002.7
2017-09-16T05:49:37.681Z,1002.7
2017-09-16T05:50:40.120Z,1002.7
2017-09-16T05:51:42.563Z,1002.6
2017-09-16T05:52:45.005Z,1002.7
2017-09-16T05:53:47.504Z,1002.7
2017-09-16T05:54:49.960Z,1002.7
2017-09-16T05:55:52.395Z,1002.7
2017-09-16T05:56:54.848Z,1002.7
2017-09-16T05:57:57.291Z,1002.8
2017-09-16T05:58:59.816Z,1002.7
2017-09-16T06:00:02.607Z,1002.7
2017-09-16T06:01:05.042Z,1002.7
2017-09-16T06:02:07.480Z,1002.8
2017-09-16T06:03:09.925Z,1002.7
2017-09-16T06:04:12.368Z,1002.7
2017-09-16T06:05:14.806Z,1002.7
2017-09-16T06:06:17.247Z,1002.7
2017-09-16T06:07:19.682Z,1002.7
2017-09-16T06:08:22.124Z,1002.7
2017-09-16T06:09:24.624Z,1002.7
2017-09-16T06:10:27.068Z,1002.6
2017-09-16T06:11:29.512Z,1002.6
2017-09-16T06:12:31.957Z,1002.6
2017-09-16T06:13:34.405Z,1002.7
2017-09-16T06:14:36.852Z,1002.7
2017-09-16T06:15:39.639Z,1002.7
2017-09-16T06:16:42.425Z,1002.7
2017-09-16T06:17:44.860Z,1002.7
2017-09-16T06:18:47.305Z,1002.7
2017-09-16T06:19:49.741Z,1002.7
2017-09-16T06:20:52.195Z,1002.6
2017-09-16T06:21:54.636Z,1002.7
2017-09-16T06:22:57.069Z,1002.7
2017-09-16T06:23:59.516Z,1002.7
2017-09-16T06:25:01.981Z,1002.7
2017-09-16T06:26:04.424Z,1002.7
2017-09-16T06:27:06.870Z,1002.7
2017-09-16T06:28:09.310Z,1002.7
2017-09-16T06:29:11.753Z,1002.8
2017-09-16T06:30:14.205Z,1002.8
2017-09-16T06:31:16.649Z,1002.8
2017-09-16T06:32:19.416Z,1002.8
2017-09-16T06:33:21.799Z,1002.8
2017-09-16T06:34:24.190Z,1002.8
2017-09-16T06:35:26.583Z,1002.7
2017-09-16T06:36:28.979Z,1002.8
2017-09-16T06:37:31.367Z,1002.8
2017-09-16T06:38:33.780Z,1002.8
2017-09-16T06:39:36.169Z,1002.8
2017-09-16T06:40:38.922Z,1002.8
2017-09-16T06:41:41.312Z,1002.8
2017-09-16T06:42:43.712Z,1002.8
2017-09-16T06:43:46.112Z,1002.8
2017-09-16T06:44:48.528Z,1002.8
2017-09-16T06:45:50.921Z,1002.8
2017-09-16T06:46:53.320Z,1002.8
2017-09-16T06:47:55.698Z,1002.8
2017-09-16T06:48:58.101Z,1002.8
2017-09-16T06:50:00.844Z,1002.8
2017-09-16T06:51:03.582Z,1002.9
2017-09-16T06:52:05.975Z,1002.9
2017-09-16T06:53:08.387Z,1002.9
2017-09-16T06:54:10.784Z,1002.9
2017-09-16T06:55:13.213Z,1002.9
2017-09-16T06:56:15.606Z,1002.9
2017-09-16T06:57:18.008Z,1002.9
2017-09-16T06:58:20.433Z,1002.9
2017-09-16T06:59:22.838Z,1003
2017-09-16T07:00:25.233Z,1003
2017-09-16T07:01:27.682Z,1003
2017-09-16T07:02:30.080Z,1003
2017-09-16T07:03:32.518Z,1003
2017-09-16T07:04:35.218Z,1003
2017-09-16T07:05:37.629Z,1003
2017-09-16T07:06:40.025Z,1003
2017-09-16T07:07:42.443Z,1003
2017-09-16T07:08:44.828Z,1003.1
2017-09-16T07:09:47.224Z,1003.1
2017-09-16T07:10:49.607Z,1003.1
2017-09-16T07:11:52.018Z,1003.1
2017-09-16T07:12:54.429Z,1003
2017-09-16T07:13:56.807Z,1003.1
2017-09-16T07:14:59.562Z,1003.1
2017-09-16T07:16:01.963Z,1003.1
2017-09-16T07:17:04.353Z,1003.1
2017-09-16T07:18:06.769Z,1003.1
2017-09-16T07:19:09.165Z,1003.1
2017-09-16T07:20:11.895Z,1003.1
2017-09-16T07:21:14.303Z,1003.1
2017-09-16T07:22:17.052Z,1003.1
2017-09-16T07:23:19.442Z,1003.1
2017-09-16T07:24:21.838Z,1003.1
2017-09-16T07:25:24.220Z,1003.1
2017-09-16T07:26:26.619Z,1003.1
2017-09-16T07:27:29.013Z,1003.1
2017-09-16T07:28:31.740Z,1003.1
2017-09-16T07:29:34.153Z,1003.2
2017-09-16T07:30:36.535Z,1003.1
2017-09-16T07:31:38.933Z,1003.2
2017-09-16T07:32:41.324Z,1003.2
2017-09-16T07:33:43.716Z,1003.2
2017-09-16T07:34:46.447Z,1003.2
2017-09-16T07:35:48.837Z,1003.2
2017-09-16T07:36:51.231Z,1003.2
2017-09-16T07:37:53.966Z,1003.2
2017-09-16T07:38:56.692Z,1003.2
2017-09-16T07:39:59.082Z,1003.2
2017-09-16T07:41:01.475Z,1003.2
2017-09-16T07:42:03.866Z,1003.2
2017-09-16T07:43:06.258Z,1003.2
2017-09-16T07:44:08.650Z,1003.2
2017-09-16T07:45:11.042Z,1003.3
2017-09-16T07:46:13.428Z,1003.3
2017-09-16T07:47:15.823Z,1003.3
2017-09-16T07:48:18.219Z,1003.3
2017-09-16T07:49:20.613Z,1003.3
2017-09-16T07:50:23.207Z,1003.3
2017-09-16T07:51:25.598Z,1003.3
2017-09-16T07:52:27.991Z,1003.3
2017-09-16T07:53:30.379Z,1003.3
2017-09-16T07:54:32.772Z,1003.3
2017-09-16T07:55:35.170Z,1003.4
2017-09-16T07:56:37.564Z,1003.4
2017-09-16T07:57:39.965Z,1003.4
2017-09-16T07:58:42.353Z,1003.4
2017-09-16T07:59:44.754Z,1003.4
2017-09-16T08:00:47.150Z,1003.4
2017-09-16T08:01:49.543Z,1003.4
2017-09-16T08:02:51.932Z,1003.4
2017-09-16T08:03:54.328Z,1003.5
2017-09-16T08:04:56.715Z,1003.4
2017-09-16T08:05:59.114Z,1003.4
2017-09-16T08:07:01.495Z,1003.4
2017-09-16T08:08:04.238Z,1003.4
2017-09-16T08:09:06.629Z,1003.4
2017-09-16T08:10:09.019Z,1003.4
2017-09-16T08:11:11.419Z,1003.4
2017-09-16T08:12:13.811Z,1003.5
2017-09-16T08:13:16.211Z,1003.4
2017-09-16T08:14:18.604Z,1003.5
2017-09-16T08:15:20.996Z,1003.5
2017-09-16T08:16:23.388Z,1003.5
2017-09-16T08:17:25.796Z,1003.5
2017-09-16T08:18:28.197Z,1003.5
2017-09-16T08:19:31.267Z,1003.5
2017-09-16T08:20:34.026Z,1003.4
2017-09-16T08:21:36.423Z,1003.4
2017-09-16T08:22:38.821Z,1003.5
2017-09-16T08:23:41.222Z,1003.5
2017-09-16T08:24:43.610Z,1003.5
2017-09-16T08:25:46.008Z,1003.5
2017-09-16T08:26:48.399Z,1003.5
2017-09-16T08:27:50.795Z,1003.5
2017-09-16T08:28:53.187Z,1003.5
2017-09-16T08:29:55.583Z,1003.5
2017-09-16T08:30:57.980Z,1003.5
2017-09-16T08:32:00.370Z,1003.5
2017-09-16T08:33:02.769Z,1003.5
2017-09-16T08:34:05.168Z,1003.5
2017-09-16T08:35:07.562Z,1003.5
2017-09-16T08:36:09.955Z,1003.6
2017-09-16T08:37:12.351Z,1003.5
2017-09-16T08:38:14.757Z,1003.5
2017-09-16T08:39:17.161Z,1003.5
2017-09-16T08:40:19.565Z,1003.5
2017-09-16T08:41:21.959Z,1003.6
2017-09-16T08:42:24.365Z,1003.5
2017-09-16T08:43:26.759Z,1003.5
2017-09-16T08:44:29.157Z,1003.5
2017-09-16T08:45:31.899Z,1003.5
2017-09-16T08:46:34.297Z,1003.5
2017-09-16T08:47:36.697Z,1003.5
2017-09-16T08:48:39.483Z,1003.5
2017-09-16T08:49:41.857Z,1003.5
2017-09-16T08:50:44.261Z,1003.5
2017-09-16T08:51:46.668Z,1003.5
2017-09-16T08:52:49.070Z,1003.5
2017-09-16T08:53:51.828Z,1003.5
2017-09-16T08:54:54.239Z,1003.5
2017-09-16T08:55:56.631Z,1003.4
2017-09-16T08:56:59.025Z,1003.4
2017-09-16T08:58:01.428Z,1003.4
2017-09-16T08:59:03.831Z,1003.4
2017-09-16T09:00:06.229Z,1003.4
2017-09-16T09:01:08.630Z,1003.4
2017-09-16T09:02:11.027Z,1003.3
2017-09-16T09:03:13.429Z,1003.4
2017-09-16T09:04:15.831Z,1003.4
2017-09-16T09:05:18.582Z,1003.4
2017-09-16T09:06:20.985Z,1003.4
2017-09-16T09:07:23.387Z,1003.4
2017-09-16T09:08:25.787Z,1003.4
2017-09-16T09:09:28.197Z,1003.3
2017-09-16T09:10:30.601Z,1003.4
2017-09-16T09:11:33.006Z,1003.4
2017-09-16T09:12:35.412Z,1003.3
2017-09-16T09:13:37.816Z,1003.4
2017-09-16T09:14:40.220Z,1003.3
2017-09-16T09:15:42.618Z,1003.4
2017-09-16T09:16:45.027Z,1003.3
2017-09-16T09:17:47.433Z,1003.4
2017-09-16T09:18:49.836Z,1003.4
2017-09-16T09:19:52.240Z,1003.3
2017-09-16T09:20:54.642Z,1003.3
2017-09-16T09:21:57.049Z,1003.4
2017-09-16T09:22:59.453Z,1003.3
2017-09-16T09:24:01.850Z,1003.3
2017-09-16T09:25:04.247Z,1003.2
2017-09-16T09:26:06.655Z,1003.3
2017-09-16T09:27:09.059Z,1003.3
2017-09-16T09:28:11.461Z,1003.4
2017-09-16T09:29:13.870Z,1003.4
2017-09-16T09:30:16.272Z,1003.4
2017-09-16T09:31:19.018Z,1003.4
2017-09-16T09:32:21.417Z,1003.4
2017-09-16T09:33:23.824Z,1003.4
2017-09-16T09:34:26.229Z,1003.4
2017-09-16T09:35:28.631Z,1003.5
2017-09-16T09:36:31.029Z,1003.4
2017-09-16T09:37:33.433Z,1003.5
2017-09-16T09:38:35.837Z,1003.5
2017-09-16T09:39:38.588Z,1003.5
2017-09-16T09:40:41.319Z,1003.5
2017-09-16T09:41:43.725Z,1003.5
2017-09-16T09:42:46.123Z,1003.5
2017-09-16T09:43:48.532Z,1003.5
2017-09-16T09:44:50.938Z,1003.6
2017-09-16T09:45:53.337Z,1003.6
2017-09-16T09:46:55.747Z,1003.5
2017-09-16T09:47:58.154Z,1003.6
2017-09-16T09:49:00.554Z,1003.5
2017-09-16T09:50:03.300Z,1003.5
2017-09-16T09:51:05.702Z,1003.6
2017-09-16T09:52:08.110Z,1003.5
2017-09-16T09:53:10.513Z,1003.5
2017-09-16T09:54:12.926Z,1003.5
2017-09-16T09:55:15.342Z,1003.6
2017-09-16T09:56:17.742Z,1003.6
2017-09-16T09:57:20.165Z,1003.5
2017-09-16T09:58:22.579Z,1003.6
2017-09-16T09:59:24.983Z,1003.6
2017-09-16T10:00:27.724Z,1003.5
2017-09-16T10:01:30.135Z,1003.5
2017-09-16T10:02:32.547Z,1003.6
2017-09-16T10:03:34.955Z,1003.6
2017-09-16T10:04:37.373Z,1003.6
2017-09-16T10:05:39.777Z,1003.6
2017-09-16T10:06:42.173Z,1003.5
2017-09-16T10:07:44.571Z,1003.5
2017-09-16T10:08:46.969Z,1003.6
2017-09-16T10:09:49.712Z,1003.6
2017-09-16T10:10:52.122Z,1003.7
2017-09-16T10:11:54.879Z,1003.6
2017-09-16T10:12:57.287Z,1003.6
2017-09-16T10:13:59.703Z,1003.7
2017-09-16T10:15:02.106Z,1003.6
2017-09-16T10:16:04.516Z,1003.7
2017-09-16T10:17:06.914Z,1003.6
2017-09-16T10:18:09.685Z,1003.5
2017-09-16T10:19:12.087Z,1003.6
2017-09-16T10:20:14.485Z,1003.6
2017-09-16T10:21:16.885Z,1003.5
2017-09-16T10:22:19.289Z,1003.6
2017-09-16T10:23:21.695Z,1003.6
2017-09-16T10:24:24.105Z,1003.6
2017-09-16T10:25:26.853Z,1003.6
2017-09-16T10:26:29.251Z,1003.6
2017-09-16T10:27:31.645Z,1003.5
2017-09-16T10:28:34.399Z,1003.6
2017-09-16T10:29:37.488Z,1003.6
2017-09-16T10:30:39.910Z,1003.6
2017-09-16T10:31:42.682Z,1003.6
2017-09-16T10:32:45.423Z,1003.6
2017-09-16T10:33:47.823Z,1003.6
2017-09-16T10:34:50.223Z,1003.6
2017-09-16T10:35:52.624Z,1003.5
2017-09-16T10:36:55.026Z,1003.6
2017-09-16T10:37:57.774Z,1003.5
2017-09-16T10:39:00.167Z,1003.6
2017-09-16T10:40:02.579Z,1003.5
2017-09-16T10:41:04.982Z,1003.6
2017-09-16T10:42:07.382Z,1003.6
2017-09-16T10:43:09.787Z,1003.6
2017-09-16T10:44:12.189Z,1003.5
2017-09-16T10:45:14.636Z,1003.5
2017-09-16T10:46:17.443Z,1003.5
2017-09-16T10:47:20.178Z,1003.4
2017-09-16T10:48:22.611Z,1003.5
2017-09-16T10:49:25.018Z,1003.5
2017-09-16T10:50:27.449Z,1003.5
2017-09-16T10:51:29.859Z,1003.5
2017-09-16T10:52:32.262Z,1003.5
2017-09-16T10:53:34.666Z,1003.5
2017-09-16T10:54:37.078Z,1003.6
2017-09-16T10:55:39.480Z,1003.5
2017-09-16T10:56:41.879Z,1003.6
2017-09-16T10:57:44.287Z,1003.5
2017-09-16T10:58:46.693Z,1003.6
2017-09-16T10:59:49.103Z,1003.5
2017-09-16T11:00:51.855Z,1003.6
2017-09-16T11:01:54.272Z,1003.6
2017-09-16T11:02:56.675Z,1003.6
2017-09-16T11:03:59.090Z,1003.7
2017-09-16T11:05:01.507Z,1003.6
2017-09-16T11:06:03.902Z,1003.7
2017-09-16T11:07:06.310Z,1003.7
2017-09-16T11:08:09.046Z,1003.6
2017-09-16T11:09:11.475Z,1003.6
2017-09-16T11:10:13.876Z,1003.7
2017-09-16T11:11:16.284Z,1003.6
2017-09-16T11:12:18.709Z,1003.6
2017-09-16T11:13:21.475Z,1003.6
2017-09-16T11:14:23.870Z,1003.6
2017-09-16T11:15:26.617Z,1003.6
2017-09-16T11:16:29.031Z,1003.6
2017-09-16T11:17:31.437Z,1003.7
2017-09-16T11:18:33.835Z,1003.6
2017-09-16T11:19:36.589Z,1003.6
2017-09-16T11:20:39.000Z,1003.6
2017-09-16T11:21:41.404Z,1003.7
2017-09-16T11:22:44.161Z,1003.7
2017-09-16T11:23:46.587Z,1003.6
2017-09-16T11:24:48.989Z,1003.6
2017-09-16T11:25:51.433Z,1003.7
2017-09-16T11:26:53.891Z,1003.6
2017-09-16T11:27:56.289Z,1003.7
2017-09-16T11:28:58.709Z,1003.7
2017-09-16T11:30:01.127Z,1003.7
2017-09-16T11:31:03.525Z,1003.6
2017-09-16T11:32:05.924Z,1003.6
2017-09-16T11:33:08.333Z,1003.6
2017-09-16T11:34:11.081Z,1003.6
2017-09-16T11:35:13.487Z,1003.6
2017-09-16T11:36:15.918Z,1003.6
2017-09-16T11:37:18.310Z,1003.5
2017-09-16T11:38:21.054Z,1003.6
2017-09-16T11:39:23.487Z,1003.6
2017-09-16T11:40:25.926Z,1003.6
2017-09-16T11:41:28.341Z,1003.5
2017-09-16T11:42:30.782Z,1003.6
2017-09-16T11:43:33.182Z,1003.5
2017-09-16T11:44:35.619Z,1003.5
2017-09-16T11:45:38.021Z,1003.7
2017-09-16T11:46:40.455Z,1003.6
2017-09-16T11:47:42.877Z,1003.6
2017-09-16T11:48:45.281Z,1003.6
2017-09-16T11:49:47.697Z,1003.6
2017-09-16T11:50:50.105Z,1003.6
2017-09-16T11:51:52.501Z,1003.6
2017-09-16T11:52:54.918Z,1003.5
2017-09-16T11:53:57.672Z,1003.6
2017-09-16T11:55:00.110Z,1003.5
2017-09-16T11:56:02.508Z,1003.5
2017-09-16T11:57:04.918Z,1003.6
2017-09-16T11:58:07.661Z,1003.5
2017-09-16T11:59:10.065Z,1003.5
2017-09-16T12:00:12.477Z,1003.5
2017-09-16T12:01:14.871Z,1003.5
2017-09-16T12:02:17.279Z,1003.6
2017-09-16T12:03:20.023Z,1003.5
2017-09-16T12:04:22.764Z,1003.6
2017-09-16T12:05:25.170Z,1003.6
2017-09-16T12:06:27.580Z,1003.6
2017-09-16T12:07:29.982Z,1003.6
2017-09-16T12:08:32.391Z,1003.5
2017-09-16T12:09:34.801Z,1003.6
2017-09-16T12:10:37.200Z,1003.6
2017-09-16T12:11:39.605Z,1003.5
2017-09-16T12:12:42.016Z,1003.5
2017-09-16T12:13:44.771Z,1003.5
2017-09-16T12:14:47.175Z,1003.6
2017-09-16T12:15:49.581Z,1003.6
2017-09-16T12:16:51.975Z,1003.6
2017-09-16T12:17:54.601Z,1003.6
2017-09-16T12:18:57.003Z,1003.6
2017-09-16T12:19:59.409Z,1003.5
2017-09-16T12:21:01.824Z,1003.5
2017-09-16T12:22:04.228Z,1003.5
2017-09-16T12:23:06.633Z,1003.5
2017-09-16T12:24:09.037Z,1003.5
2017-09-16T12:25:11.439Z,1003.5
2017-09-16T12:26:13.836Z,1003.5
2017-09-16T12:27:16.250Z,1003.5
2017-09-16T12:28:18.651Z,1003.5
2017-09-16T12:29:21.062Z,1003.5
2017-09-16T12:30:23.466Z,1003.5
2017-09-16T12:32:17.424Z,1003.5
2017-09-16T12:33:19.879Z,1003.5
2017-09-16T12:34:22.350Z,1003.5
2017-09-16T12:35:24.797Z,1003.5
2017-09-16T12:36:27.256Z,1003.5
2017-09-16T12:37:29.716Z,1003.5
2017-09-16T12:38:32.374Z,1003.4
2017-09-16T12:39:34.832Z,1003.3
2017-09-16T12:40:37.294Z,1003.4
2017-09-16T12:41:39.752Z,1003.5
2017-09-16T12:42:42.217Z,1003.5
2017-09-16T12:43:45.018Z,1003.4
2017-09-16T12:44:47.468Z,1003.5
2017-09-16T12:45:49.932Z,1003.4
2017-09-16T12:46:52.396Z,1003.5
2017-09-16T12:47:55.213Z,1003.4
2017-09-16T12:48:57.686Z,1003.4
2017-09-16T12:50:00.138Z,1003.4
2017-09-16T12:51:02.596Z,1003.4
2017-09-16T12:52:05.060Z,1003.5
2017-09-16T12:53:07.515Z,1003.5
2017-09-16T12:54:09.981Z,1003.4
2017-09-16T12:55:12.438Z,1003.5
2017-09-16T12:56:14.898Z,1003.4
2017-09-16T12:57:17.354Z,1003.4
2017-09-16T12:58:19.818Z,1003.5
2017-09-16T12:59:22.276Z,1003.4
2017-09-16T13:00:24.751Z,1003.5
2017-09-16T13:01:27.233Z,1003.5
2017-09-16T13:02:29.702Z,1003.4
2017-09-16T13:03:32.512Z,1003.4
2017-09-16T13:04:34.981Z,1003.4